Polley, Wisconsin
Current Conditions -  °F | °C
As of 7:35 PM on Wednesday 22 Oct 2014 (Local Time) from KRCX Reporting Station
Scattered Clouds Scattered Clouds  
Wind Chill: 51°   Ceiling: Unl
Heat Index: 51°   Visibility: 10mi
Dew Point: 33°   Wind: 8mph
Humidity: 50%   Direction: 140°SE
Pressure: 30.15"   Gusts: NA
Location:  45.2123°N, 90.8091°W
Report Text: KRCX 230035Z AUTO 14007KT 10SM SCT060 11/01 A3015 RMK AO2 T01080007
Loading
Personal Weather Stations






























Interactive Weather Map
Tropical Storm Tracking
New forecast layout! Learn more

10-Day Weather Forecast

Advertisements
Track Severe Weather on mobile